Time;durP1;ratioP1;P1;durP2;ratioP2;P2;SDS_P1;SDS_P2;PMS_P1;PMS_P2;Temp;Humidity;BMP_temperature;BMP_pressure;BME280_temperature;BME280_humidity;BME280_pressure;Samples;Min_cycle;Max_cycle;Signal;HPM_P1;HPM_P2
2022/01/24 00:02:27;;;;;;;12.82;7.63;;;;;;;5.56;79.54;100986.53;5092143;28;20219;-75
2022/01/24 00:04:54;;;;;;;8.82;6.82;;;;;;;5.73;79.31;100988.94;5083316;28;20227;-75
2022/01/24 00:07:22;;;;;;;10.60;7.63;;;;;;;5.71;79.14;100988.09;5084435;28;20283;-75
2022/01/24 00:09:52;;;;;;;10.07;7.28;;;;;;;5.93;78.04;100981.47;5092008;28;20772;-75
2022/01/24 00:12:28;;;;;;;10.80;7.45;;;;;;;5.74;78.68;100980.00;5084648;28;20195;-75
2022/01/24 00:15:08;;;;;;;9.60;7.22;;;;;;;5.79;78.81;100984.41;5091443;28;20188;-75
2022/01/24 00:17:37;;;;;;;9.77;7.40;;;;;;;5.70;79.38;100989.88;5092234;28;20184;-75
2022/01/24 00:28:20;;;;;;;8.07;6.60;;;;;;;5.84;78.71;100968.28;5084504;28;20632;-76
2022/01/24 00:30:47;;;;;;;10.35;7.30;;;;;;;5.76;78.92;100972.84;5091323;28;20567;-76
2022/01/24 00:33:14;;;;;;;8.85;7.20;;;;;;;5.71;79.34;100972.06;5089125;28;20188;-76
2022/01/24 00:35:41;;;;;;;10.00;7.60;;;;;;;5.75;79.75;100971.09;5091440;28;20188;-77
2022/01/24 00:38:08;;;;;;;8.57;6.55;;;;;;;5.74;79.56;100972.88;5084165;28;20211;-76
2022/01/24 00:40:38;;;;;;;8.95;7.00;;;;;;;5.80;79.32;100970.09;5091814;28;20277;-76
2022/01/24 00:43:11;;;;;;;8.55;6.70;;;;;;;5.81;78.76;100977.22;5095765;28;20183;-76
2022/01/24 00:45:52;;;;;;;8.02;6.60;;;;;;;5.57;79.91;100967.81;5095415;28;20276;-76
2022/01/24 00:48:32;;;;;;;8.90;6.13;;;;;;;5.54;80.45;100977.66;5089933;28;20198;-76
2022/01/24 00:54:00;;;;;;;8.77;7.20;;;;;;;5.52;80.61;100979.50;5095284;28;20233;-76
2022/01/24 00:56:27;;;;;;;9.02;6.93;;;;;;;5.39;81.92;100974.31;5088596;28;20196;-76
2022/01/24 00:58:54;;;;;;;9.73;7.25;;;;;;;5.37;81.99;100976.13;5094871;28;20204;-75
2022/01/24 01:01:21;;;;;;;7.88;6.57;;;;;;;5.28;82.70;100973.59;5095977;28;20200;-76
2022/01/24 01:03:48;;;;;;;8.40;6.60;;;;;;;5.23;83.11;100978.13;5095277;28;20208;-76
2022/01/24 01:06:16;;;;;;;9.05;7.00;;;;;;;5.26;83.03;100971.84;5095948;28;20199;-76
2022/01/24 01:19:52;;;;;;;9.73;6.60;;;;;;;4.99;85.19;100974.88;5095072;28;20219;-76
2022/01/24 01:22:19;;;;;;;11.88;8.07;;;;;;;5.09;84.61;100970.31;5090269;28;20573;-76
2022/01/24 01:24:51;;;;;;;10.65;7.63;;;;;;;4.85;86.01;100965.28;5093785;28;20211;-75
2022/01/24 01:27:22;;;;;;;9.02;6.57;;;;;;;4.77;86.89;100968.94;5095468;28;20242;-75
2022/01/24 01:29:55;;;;;;;9.57;7.30;;;;;;;4.73;87.36;100972.53;5095048;28;20223;-74
2022/01/24 01:32:40;;;;;;;12.25;7.50;;;;;;;4.69;88.00;100969.94;5095148;28;20191;-74
2022/01/24 01:35:24;;;;;;;9.05;6.82;;;;;;;4.57;88.61;100962.97;5089052;28;20234;-75
2022/01/24 01:38:23;;;;;;;10.68;8.13;;;;;;;4.65;88.51;100957.53;5087335;28;20188;-74
2022/01/24 01:54:50;;;;;;;8.48;6.68;;;;;;;4.32;91.35;100971.25;5094432;28;20283;-76
2022/01/24 01:57:20;;;;;;;9.15;6.72;;;;;;;4.27;91.65;100972.16;5094700;28;20200;-75
2022/01/24 01:59:48;;;;;;;8.32;6.97;;;;;;;4.09;93.51;100965.22;5086749;28;20194;-76
2022/01/24 02:02:14;;;;;;;10.48;7.00;;;;;;;4.00;94.31;100973.31;5094580;28;20192;-76
2022/01/24 02:04:43;;;;;;;10.82;7.07;;;;;;;3.88;95.70;100963.66;5086197;28;20303;-76
2022/01/24 02:07:12;;;;;;;8.85;6.80;;;;;;;3.94;95.81;100967.16;5094336;28;20209;-76
2022/01/24 02:09:41;;;;;;;8.27;7.13;;;;;;;3.97;95.42;100961.78;5094243;28;20227;-76
2022/01/24 02:12:12;;;;;;;10.20;7.90;;;;;;;4.02;95.21;100971.53;5092887;28;20188;-76
2022/01/24 02:14:46;;;;;;;10.55;7.40;;;;;;;3.83;96.16;100968.16;5094045;28;20380;-76
2022/01/24 02:17:18;;;;;;;8.00;6.35;;;;;;;3.85;96.69;100969.91;5095056;28;20191;-75
2022/01/24 02:20:06;;;;;;;8.20;7.40;;;;;;;3.93;96.15;100967.16;5094934;28;20191;-76
2022/01/24 02:22:47;;;;;;;8.52;6.97;;;;;;;3.95;95.64;100957.38;5094675;28;20226;-76
2022/01/24 02:25:25;;;;;;;11.35;8.52;;;;;;;3.93;95.11;100954.75;5088479;28;20618;-75
2022/01/24 02:27:57;;;;;;;10.65;8.85;;;;;;;3.70;96.99;100949.59;5094309;28;20190;-76
2022/01/24 02:30:42;;;;;;;10.68;7.75;;;;;;;3.96;96.29;100946.72;5094059;28;20602;-75
2022/01/24 02:33:10;;;;;;;12.23;8.80;;;;;;;3.87;95.86;100946.81;5094170;28;20546;-76
2022/01/24 02:35:37;;;;;;;9.63;7.57;;;;;;;3.90;96.07;100952.09;5090867;28;20561;-76
2022/01/24 02:38:12;;;;;;;9.23;7.75;;;;;;;3.86;95.49;100944.13;5090555;28;20698;-75
2022/01/24 02:40:39;;;;;;;8.10;7.28;;;;;;;3.62;97.17;100947.88;5087438;28;20696;-75
2022/01/24 02:48:22;;;;;;;9.75;7.70;;;;;;;3.57;98.45;100944.38;5088539;28;20208;-75
2022/01/24 02:48:49;;;;;;;11.18;8.40;;;;;;;3.54;99.35;100939.97;5088344;28;20601;-75
2022/01/24 02:51:32;;;;;;;9.47;7.83;;;;;;;3.73;98.41;100935.34;5093610;28;20188;-76
2022/01/24 02:54:00;;;;;;;11.95;8.30;;;;;;;3.74;98.09;100930.03;5093069;28;20188;-76
2022/01/24 02:56:26;;;;;;;9.82;8.20;;;;;;;3.97;96.51;100936.94;5091919;28;20555;-75
2022/01/24 02:58:53;;;;;;;12.20;8.48;;;;;;;3.91;96.71;100936.97;5093716;28;20194;-76
2022/01/24 03:01:20;;;;;;;11.15;8.20;;;;;;;3.72;97.57;100936.28;5093155;28;20545;-75
2022/01/24 03:03:46;;;;;;;13.07;8.23;;;;;;;3.48;99.55;100934.69;5093666;28;20191;-75
2022/01/24 03:06:13;;;;;;;11.10;8.15;;;;;;;3.33;100.00;100933.91;5093126;28;20213;-75
2022/01/24 03:08:41;;;;;;;11.18;8.23;;;;;;;3.42;100.00;100932.97;5093465;28;20342;-75
2022/01/24 03:11:10;;;;;;;10.93;8.02;;;;;;;3.53;100.00;100920.44;5092668;28;20202;-75
2022/01/24 03:13:37;;;;;;;10.40;7.82;;;;;;;3.32;100.00;100926.84;5092868;28;20203;-76
2022/01/24 03:16:06;;;;;;;12.25;9.02;;;;;;;3.39;100.00;100922.31;5093092;28;20646;-75
2022/01/24 03:18:33;;;;;;;12.30;8.90;;;;;;;3.46;100.00;100926.72;5092579;28;20308;-75
2022/01/24 03:21:00;;;;;;;10.15;8.85;;;;;;;3.50;100.00;100927.56;5093562;28;20641;-76
2022/01/24 03:23:27;;;;;;;11.32;9.05;;;;;;;3.54;100.00;100927.53;5093238;28;20191;-75
2022/01/24 03:25:54;;;;;;;13.07;9.50;;;;;;;3.58;99.95;100923.06;5091538;28;20218;-75
2022/01/24 03:28:22;;;;;;;10.00;7.65;;;;;;;3.42;100.00;100930.31;5085365;28;20274;-75
2022/01/24 03:30:49;;;;;;;9.63;7.63;;;;;;;3.49;100.00;100928.47;5092829;28;20222;-75
2022/01/24 03:33:16;;;;;;;12.02;8.57;;;;;;;3.55;100.00;100921.31;5084328;28;20234;-75
2022/01/24 03:35:43;;;;;;;14.02;8.10;;;;;;;3.63;99.38;100925.69;5093039;28;20602;-75
2022/01/24 03:38:11;;;;;;;11.55;7.68;;;;;;;3.60;99.18;100915.09;5092557;28;20198;-75
2022/01/24 03:40:38;;;;;;;11.98;8.20;;;;;;;3.63;98.59;100921.25;5092344;28;20606;-75
2022/01/24 03:43:05;;;;;;;9.82;7.93;;;;;;;3.47;100.00;100923.16;5092220;28;20201;-75
2022/01/24 03:45:42;;;;;;;10.65;7.82;;;;;;;3.60;99.50;100917.75;5092902;28;20721;-76
2022/01/24 03:48:12;;;;;;;11.43;7.82;;;;;;;3.68;98.87;100921.19;5085952;28;20624;-75
2022/01/24 03:50:39;;;;;;;8.88;7.05;;;;;;;3.58;98.79;100916.88;5092822;28;20189;-75
2022/01/24 03:53:06;;;;;;;8.80;6.75;;;;;;;3.57;98.90;100915.09;5091349;28;20296;-75
2022/01/24 03:55:33;;;;;;;9.30;7.15;;;;;;;3.48;99.35;100927.59;5092284;28;20192;-75
2022/01/24 03:58:00;;;;;;;9.98;6.97;;;;;;;3.52;99.79;100920.44;5092544;28;20197;-75
2022/01/24 04:00:27;;;;;;;9.02;6.78;;;;;;;3.46;98.45;100923.16;5090975;28;20194;-74
2022/01/24 04:02:56;;;;;;;11.23;6.07;;;;;;;3.58;98.36;100919.53;5092693;28;20282;-74
2022/01/24 04:05:22;;;;;;;8.65;6.30;;;;;;;3.34;99.64;100930.34;5092440;28;20329;-74
2022/01/24 04:07:49;;;;;;;9.27;6.60;;;;;;;3.20;100.00;100926.03;5091932;28;20320;-74
2022/01/24 04:10:19;;;;;;;10.82;8.00;;;;;;;3.17;100.00;100931.38;5091986;28;20337;-74
2022/01/24 04:12:45;;;;;;;8.13;6.35;;;;;;;3.29;100.00;100931.28;5091335;28;20200;-74
2022/01/24 04:15:34;;;;;;;7.47;5.70;;;;;;;3.32;100.00;100925.94;5090457;28;20199;-74
2022/01/24 04:18:33;;;;;;;8.85;6.22;;;;;;;3.20;100.00;100931.34;5092520;28;20616;-74
2022/01/24 04:21:21;;;;;;;7.30;5.70;;;;;;;3.10;100.00;100926.09;5092305;28;20579;-74
2022/01/24 04:23:53;;;;;;;9.90;7.00;;;;;;;3.10;100.00;100934.06;5091013;28;20190;-74
2022/01/24 04:26:20;;;;;;;8.45;6.50;;;;;;;2.93;100.00;100933.28;5091867;28;20558;-74
2022/01/24 04:28:47;;;;;;;7.47;6.20;;;;;;;3.04;100.00;100936.75;5091675;28;20194;-75
2022/01/24 04:31:13;;;;;;;7.13;6.00;;;;;;;2.83;100.00;100934.22;5091600;28;20193;-74
2022/01/24 04:33:41;;;;;;;7.75;6.10;;;;;;;2.85;100.00;100940.41;5087869;28;20194;-75
2022/01/24 04:36:08;;;;;;;11.75;6.88;;;;;;;2.86;100.00;100934.22;5089984;28;20266;-75
2022/01/24 04:38:35;;;;;;;10.38;7.25;;;;;;;2.66;100.00;100939.63;5091818;28;20681;-74
2022/01/24 04:41:06;;;;;;;9.32;6.80;;;;;;;2.48;100.00;100935.25;5091448;28;20237;-74
2022/01/24 04:43:48;;;;;;;8.35;6.78;;;;;;;2.79;100.00;100936.00;5091562;28;20591;-75
2022/01/24 04:46:29;;;;;;;9.38;6.85;;;;;;;2.67;100.00;100936.09;5092229;28;20669;-75
2022/01/24 04:51:55;;;;;;;8.00;5.85;;;;;;;2.90;100.00;100933.31;5087014;28;20193;-74
2022/01/24 04:54:39;;;;;;;8.98;5.97;;;;;;;2.88;100.00;100927.09;5092094;28;20196;-75
2022/01/24 04:57:08;;;;;;;8.40;6.28;;;;;;;3.04;100.00;100931.44;5085805;28;20275;-74
2022/01/24 04:59:35;;;;;;;8.15;5.22;;;;;;;3.07;100.00;100927.88;5091784;28;20223;-75
2022/01/24 05:02:01;;;;;;;7.70;5.50;;;;;;;3.07;100.00;100920.75;5091538;28;20217;-74
2022/01/24 05:04:29;;;;;;;9.30;6.25;;;;;;;2.97;100.00;100908.44;5090867;28;20197;-75
2022/01/24 05:06:56;;;;;;;9.02;6.25;;;;;;;3.07;100.00;100903.91;5091813;28;20285;-74
2022/01/24 05:09:23;;;;;;;6.10;5.50;;;;;;;2.98;100.00;100902.19;5091242;28;20229;-74
2022/01/24 05:11:54;;;;;;;7.43;5.63;;;;;;;2.85;100.00;100898.75;5091860;28;20189;-74
2022/01/24 05:25:25;;;;;;;6.97;6.28;;;;;;;2.75;100.00;100890.81;5093812;28;20563;-75
2022/01/24 05:27:51;;;;;;;9.82;6.03;;;;;;;2.65;100.00;100898.84;5093170;28;20265;-75
2022/01/24 05:30:18;;;;;;;8.40;6.20;;;;;;;2.46;100.00;100899.81;5094163;28;20634;-76
2022/01/24 05:32:45;;;;;;;8.18;6.65;;;;;;;2.51;100.00;100903.34;5077241;28;20191;-75
2022/01/24 05:35:13;;;;;;;7.63;5.82;;;;;;;2.50;100.00;100899.78;5083495;28;20197;-76
2022/01/24 05:37:40;;;;;;;8.40;6.70;;;;;;;2.44;100.00;100891.84;5095394;28;20199;-75
2022/01/24 05:40:08;;;;;;;7.85;6.07;;;;;;;2.32;100.00;100896.34;5099083;28;20186;-75
2022/01/24 05:42:35;;;;;;;8.52;7.03;;;;;;;2.40;100.00;100890.09;5095038;28;20200;-75
2022/01/24 05:45:03;;;;;;;9.40;6.78;;;;;;;2.53;100.00;100893.56;5094902;28;20699;-76
2022/01/24 05:47:30;;;;;;;9.20;6.93;;;;;;;2.64;100.00;100898.84;5095089;28;20203;-75
2022/01/24 05:49:56;;;;;;;8.95;6.85;;;;;;;2.47;100.00;100902.47;5094777;28;20218;-76
2022/01/24 05:52:25;;;;;;;11.00;7.65;;;;;;;2.36;100.00;100898.09;5094829;28;20191;-76
2022/01/24 05:54:52;;;;;;;9.50;6.20;;;;;;;2.34;100.00;100899.88;5094599;28;20192;-76
2022/01/24 05:57:18;;;;;;;8.13;6.40;;;;;;;2.27;100.00;100888.38;5094582;28;20698;-76
2022/01/24 05:59:45;;;;;;;7.20;6.40;;;;;;;2.25;100.00;100887.50;5095103;28;20191;-76
2022/01/24 06:02:14;;;;;;;8.57;6.30;;;;;;;2.36;100.00;100890.13;5094011;28;20188;-76
2022/01/24 06:04:41;;;;;;;10.48;7.72;;;;;;;2.44;100.00;100890.94;5093273;28;20656;-77
2022/01/24 06:07:08;;;;;;;10.43;7.72;;;;;;;2.23;100.00;100891.94;5093664;28;20258;-78
2022/01/24 06:09:36;;;;;;;9.82;7.40;;;;;;;2.20;100.00;100884.84;5092574;28;20228;-79
2022/01/24 06:12:04;;;;;;;10.30;7.75;;;;;;;2.19;100.00;100885.72;5093600;28;20254;-78
2022/01/24 06:14:31;;;;;;;9.95;7.25;;;;;;;2.32;100.00;100885.69;5094071;28;20997;-76
2022/01/24 06:16:58;;;;;;;11.95;7.25;;;;;;;2.33;100.00;100892.75;5093650;28;20275;-77
2022/01/24 06:19:24;;;;;;;10.52;7.75;;;;;;;2.47;100.00;100891.84;5092999;28;20197;-78
2022/01/24 06:21:51;;;;;;;10.65;7.20;;;;;;;2.37;100.00;100887.44;5093539;28;20190;-78
2022/01/24 06:24:18;;;;;;;12.25;9.93;;;;;;;2.44;100.00;100882.97;5093342;28;20211;-77
2022/01/24 06:26:46;;;;;;;9.38;8.48;;;;;;;2.38;100.00;100880.38;5093658;28;20295;-77
2022/01/24 06:29:15;;;;;;;11.30;8.57;;;;;;;2.41;100.00;100878.56;5093184;28;20223;-78
2022/01/24 06:31:42;;;;;;;10.77;7.72;;;;;;;2.28;100.00;100880.41;5093375;28;20245;-78
2022/01/24 06:34:09;;;;;;;10.82;7.65;;;;;;;2.56;100.00;100879.41;5092939;28;20625;-78
2022/01/24 06:36:35;;;;;;;13.15;8.35;;;;;;;2.59;100.00;100880.25;5092235;28;20199;-78
2022/01/24 06:39:04;;;;;;;16.27;7.93;;;;;;;2.48;100.00;100892.72;5092884;28;20196;-77
2022/01/24 06:41:33;;;;;;;14.10;9.05;;;;;;;2.47;100.00;100891.84;5092934;28;20650;-77
2022/01/24 06:44:03;;;;;;;13.80;8.90;;;;;;;2.59;100.00;100896.22;5092723;28;20188;-77
2022/01/24 06:46:30;;;;;;;11.38;8.70;;;;;;;2.72;100.00;100894.38;5093030;28;20291;-77
2022/01/24 06:48:57;;;;;;;11.65;8.85;;;;;;;2.74;100.00;100897.00;5092201;28;20193;-77
2022/01/24 06:51:24;;;;;;;16.08;8.30;;;;;;;2.70;100.00;100899.69;5092720;28;20210;-77
2022/01/24 06:53:52;;;;;;;10.55;7.03;;;;;;;2.60;100.00;100897.09;5092902;28;20237;-77
2022/01/24 06:56:19;;;;;;;10.32;8.02;;;;;;;2.59;100.00;100895.34;5093004;28;20192;-78
2022/01/24 06:58:46;;;;;;;11.88;8.13;;;;;;;2.62;100.00;100889.97;5093063;28;20651;-76
2022/01/24 07:01:14;;;;;;;10.32;8.38;;;;;;;2.31;100.00;100895.47;5093239;28;20546;-76
2022/01/24 07:03:41;;;;;;;14.52;8.82;;;;;;;2.29;100.00;100892.78;5092725;28;20612;-76
2022/01/24 07:06:07;;;;;;;11.35;8.70;;;;;;;2.18;100.00;100899.03;5092603;28;20725;-77
2022/01/24 07:08:35;;;;;;;11.55;9.00;;;;;;;2.28;100.00;100895.44;5092587;28;20259;-77
2022/01/24 07:11:01;;;;;;;11.32;8.95;;;;;;;2.32;100.00;100904.31;5092420;28;20184;-77
2022/01/24 07:13:28;;;;;;;11.50;8.40;;;;;;;2.18;100.00;100897.25;5093404;28;20706;-77
2022/01/24 07:16:00;;;;;;;10.13;8.05;;;;;;;2.31;100.00;100900.78;5091587;28;20196;-75
2022/01/24 07:21:15;;;;;;;12.15;8.90;;;;;;;2.17;100.00;100902.56;5089005;28;20309;-75
2022/01/24 07:23:42;;;;;;;12.70;8.82;;;;;;;2.10;100.00;100907.00;5093031;28;20308;-75
2022/01/24 07:26:08;;;;;;;11.57;8.48;;;;;;;2.23;100.00;100908.75;5092106;28;20287;-75
2022/01/24 07:28:35;;;;;;;11.40;8.77;;;;;;;2.21;100.00;100913.19;5092410;28;20291;-76
2022/01/24 07:31:02;;;;;;;10.40;9.20;;;;;;;2.36;100.00;100919.38;5092669;28;20227;-75
2022/01/24 07:33:30;;;;;;;11.40;8.45;;;;;;;2.14;100.00;100921.19;5093056;28;20279;-75
2022/01/24 07:35:57;;;;;;;11.85;9.30;;;;;;;2.14;100.00;100921.19;5092710;28;20597;-75
2022/01/24 07:38:23;;;;;;;11.27;8.75;;;;;;;2.23;100.00;100927.34;5092876;28;20247;-75
2022/01/24 07:40:53;;;;;;;12.18;9.60;;;;;;;2.28;100.00;100911.38;5092673;28;20187;-74
2022/01/24 07:43:20;;;;;;;10.63;8.25;;;;;;;2.37;100.00;100924.66;5092254;28;20204;-74
2022/01/24 07:45:48;;;;;;;11.48;9.68;;;;;;;2.24;100.00;100926.47;5092493;28;20239;-75
2022/01/24 07:48:17;;;;;;;14.55;9.57;;;;;;;2.14;100.00;100930.03;5091434;28;20257;-75
2022/01/24 07:50:46;;;;;;;14.70;10.75;;;;;;;2.30;100.00;100936.19;5092114;28;20650;-75
2022/01/24 07:53:15;;;;;;;12.68;10.00;;;;;;;2.34;100.00;100931.78;5092325;28;20207;-74
2022/01/24 07:55:42;;;;;;;13.95;10.40;;;;;;;2.32;100.00;100938.88;5092472;28;20652;-74
2022/01/24 07:58:09;;;;;;;14.55;10.68;;;;;;;2.27;100.00;100942.41;5092396;28;20602;-75
2022/01/24 08:00:36;;;;;;;16.35;11.13;;;;;;;2.10;100.00;100941.56;5092441;28;20261;-74
2022/01/24 08:03:02;;;;;;;13.95;9.77;;;;;;;2.44;100.00;100941.47;5092532;28;20296;-74
2022/01/24 08:08:12;;;;;;;12.55;10.55;;;;;;;2.22;100.00;100944.19;5085253;28;20204;-75
2022/01/24 08:10:39;;;;;;;16.80;10.20;;;;;;;2.28;100.00;100938.88;5092027;28;20554;-75
2022/01/24 08:13:05;;;;;;;13.90;10.48;;;;;;;2.30;100.00;100942.38;5092222;28;20194;-74
2022/01/24 08:15:33;;;;;;;20.95;10.60;;;;;;;2.61;100.00;100936.09;5091675;28;20282;-73
2022/01/24 08:18:00;;;;;;;11.40;8.95;;;;;;;2.94;100.00;100929.75;5091393;28;20192;-74
2022/01/24 08:20:26;;;;;;;16.08;10.25;;;;;;;2.79;100.00;100932.47;5091702;28;20203;-74
2022/01/24 08:22:53;;;;;;;14.27;10.57;;;;;;;2.75;100.00;100931.59;5092040;28;20687;-74
2022/01/24 08:25:21;;;;;;;13.55;9.27;;;;;;;2.51;100.00;100943.25;5091792;28;20290;-75
2022/01/24 08:27:51;;;;;;;14.55;8.70;;;;;;;2.73;100.00;100941.34;5091451;28;20257;-75
2022/01/24 08:30:20;;;;;;;12.90;10.27;;;;;;;2.75;100.00;100944.00;5091882;28;20180;-74
2022/01/24 08:32:47;;;;;;;13.73;9.95;;;;;;;2.89;100.00;100935.09;5091944;28;20660;-76
2022/01/24 08:35:15;;;;;;;12.65;8.73;;;;;;;2.87;100.00;100944.84;5091719;28;20239;-75
2022/01/24 08:37:42;;;;;;;12.90;9.02;;;;;;;2.80;100.00;100936.88;5091611;28;20263;-75
2022/01/24 08:40:12;;;;;;;12.95;9.10;;;;;;;3.03;100.00;100937.66;5091682;28;20221;-75
2022/01/24 08:42:43;;;;;;;14.38;10.32;;;;;;;2.87;100.00;100931.56;5091725;28;20606;-76
2022/01/24 08:47:56;;;;;;;13.77;10.20;;;;;;;2.80;100.00;100932.44;5091486;28;20238;-75
2022/01/24 08:50:26;;;;;;;15.52;9.43;;;;;;;3.04;100.00;100936.75;5091487;28;20181;-76
2022/01/24 08:52:53;;;;;;;11.88;9.10;;;;;;;2.87;100.00;100941.28;5091487;28;20561;-74
2022/01/24 08:55:23;;;;;;;14.20;9.38;;;;;;;3.02;100.00;100935.88;5091327;28;20188;-75
2022/01/24 08:57:51;;;;;;;13.80;9.32;;;;;;;3.04;100.00;100944.75;5091420;28;20203;-75
2022/01/24 09:00:18;;;;;;;14.63;10.52;;;;;;;3.07;100.00;100938.50;5093619;28;20618;-74
2022/01/24 09:02:45;;;;;;;15.75;9.25;;;;;;;3.01;100.00;100942.13;5095430;28;20212;-75
2022/01/24 09:05:11;;;;;;;16.35;10.70;;;;;;;3.06;100.00;100945.63;5095458;28;20586;-75
2022/01/24 09:07:38;;;;;;;13.95;10.77;;;;;;;3.26;100.00;100944.63;5095325;28;20694;-74
2022/01/24 09:10:06;;;;;;;11.35;8.65;;;;;;;3.47;100.00;100952.44;5095039;28;20586;-75
2022/01/24 09:12:33;;;;;;;14.43;9.55;;;;;;;3.36;100.00;100956.97;5095136;28;20223;-75
2022/01/24 09:15:01;;;;;;;14.65;10.25;;;;;;;3.39;100.00;100951.59;5095514;28;20187;-75
2022/01/24 09:17:28;;;;;;;13.02;9.88;;;;;;;3.49;100.00;100950.66;5095138;28;20238;-76
2022/01/24 09:19:54;;;;;;;12.80;8.90;;;;;;;3.54;100.00;100948.84;5095509;28;20195;-75
2022/01/24 09:22:21;;;;;;;12.70;10.55;;;;;;;3.63;100.00;100960.31;5095429;28;20664;-75
2022/01/24 09:24:48;;;;;;;13.90;9.30;;;;;;;3.72;100.00;100953.13;5095272;28;20200;-75
2022/01/24 09:27:15;;;;;;;16.45;9.90;;;;;;;3.79;99.30;100959.28;5094983;28;20221;-75
2022/01/24 09:29:42;;;;;;;11.45;8.13;;;;;;;3.90;98.42;100959.22;5095246;28;20247;-76
2022/01/24 09:32:10;;;;;;;10.52;8.68;;;;;;;3.82;98.76;100963.72;5095141;28;20273;-76
2022/01/24 09:34:37;;;;;;;15.02;9.80;;;;;;;4.02;97.90;100964.41;5095132;28;20639;-75
2022/01/24 09:37:04;;;;;;;8.65;7.75;;;;;;;3.97;96.79;100968.91;5094573;28;20210;-76
2022/01/24 09:39:31;;;;;;;11.95;9.00;;;;;;;4.12;96.70;100968.78;5094954;28;20643;-76
2022/01/24 09:41:57;;;;;;;12.32;9.05;;;;;;;4.21;95.61;100966.94;5094428;28;20184;-75
2022/01/24 09:44:24;;;;;;;10.85;8.25;;;;;;;4.12;95.41;100970.56;5094498;28;20219;-75
2022/01/24 09:46:50;;;;;;;11.43;8.68;;;;;;;4.07;95.37;100980.34;5094938;28;20555;-75
2022/01/24 09:49:19;;;;;;;12.75;9.10;;;;;;;4.16;95.38;100977.59;5094826;28;20274;-75
2022/01/24 09:51:45;;;;;;;11.25;9.10;;;;;;;4.41;94.06;100977.34;5094608;28;20209;-75
2022/01/24 09:54:13;;;;;;;11.65;8.90;;;;;;;4.47;93.44;100975.50;5094576;28;20629;-76
2022/01/24 09:56:40;;;;;;;11.45;9.07;;;;;;;4.55;91.49;100970.97;5094073;28;20228;-75
2022/01/24 09:59:08;;;;;;;20.83;10.05;;;;;;;4.61;91.67;100962.00;5094590;28;20214;-76
2022/01/24 10:01:35;;;;;;;14.73;8.07;;;;;;;4.62;90.71;100962.91;5094468;28;20639;-75
2022/01/24 10:04:15;;;;;;;13.00;8.40;;;;;;;4.67;91.32;100964.59;5094456;28;20196;-76
2022/01/24 10:07:05;;;;;;;11.70;7.32;;;;;;;4.35;92.04;100959.66;5094325;28;20210;-76
2022/01/24 10:09:38;;;;;;;11.18;7.85;;;;;;;4.49;91.91;100956.81;5093846;28;20290;-75
2022/01/24 10:12:13;;;;;;;11.23;8.50;;;;;;;4.53;91.92;100966.56;5093374;28;20659;-76
2022/01/24 10:17:26;;;;;;;11.93;8.02;;;;;;;4.87;89.26;100966.16;5093972;28;20190;-75
2022/01/24 10:19:53;;;;;;;10.23;8.15;;;;;;;4.87;88.88;100959.03;5094417;28;20209;-75
2022/01/24 10:22:25;;;;;;;8.65;7.78;;;;;;;4.91;89.32;100959.88;5094069;28;20196;-75
2022/01/24 10:24:54;;;;;;;12.90;8.70;;;;;;;5.00;88.76;100960.63;5094303;28;20218;-75
2022/01/24 10:27:24;;;;;;;9.48;8.02;;;;;;;4.77;89.10;100952.94;5093920;28;20303;-75
2022/01/24 10:29:56;;;;;;;10.13;8.38;;;;;;;4.92;89.48;100951.84;5093888;28;20275;-75
2022/01/24 10:32:36;;;;;;;11.43;8.18;;;;;;;5.21;87.09;100951.44;5094036;28;20294;-75
2022/01/24 10:35:31;;;;;;;12.20;9.23;;;;;;;5.36;86.09;100952.09;5093577;28;20202;-75
2022/01/24 10:38:24;;;;;;;11.80;8.85;;;;;;;5.63;84.63;100943.66;5093444;28;20219;-75
2022/01/24 10:40:54;;;;;;;13.55;9.90;;;;;;;5.76;83.70;100948.81;5093516;28;20184;-76
2022/01/24 10:43:23;;;;;;;12.95;8.30;;;;;;;5.88;83.12;100942.34;5093220;28;20184;-76
2022/01/24 10:45:51;;;;;;;12.35;7.90;;;;;;;5.61;83.03;100944.59;5093328;28;20183;-75
2022/01/24 10:48:24;;;;;;;12.90;8.85;;;;;;;5.67;83.54;100935.59;5093275;28;20251;-76
2022/01/24 10:51:05;;;;;;;10.35;8.60;;;;;;;5.77;83.14;100938.09;5093463;28;20197;-75
2022/01/24 10:53:38;;;;;;;12.35;9.10;;;;;;;5.93;82.47;100936.03;5093235;28;20542;-75
2022/01/24 10:56:26;;;;;;;11.23;8.32;;;;;;;6.08;81.26;100926.88;5093439;28;20184;-75
2022/01/24 10:58:53;;;;;;;13.00;9.23;;;;;;;6.09;81.61;100922.44;5093531;28;20215;-75
2022/01/24 11:01:23;;;;;;;13.00;8.70;;;;;;;6.14;80.29;100928.56;5093169;28;20614;-76
2022/01/24 11:03:58;;;;;;;9.38;7.88;;;;;;;5.79;82.24;100922.03;5092714;28;20206;-76
2022/01/24 11:06:30;;;;;;;10.88;8.30;;;;;;;5.87;82.02;100917.41;5092940;28;20322;-76
2022/01/24 11:09:15;;;;;;;12.18;8.82;;;;;;;6.09;81.53;100915.28;5092636;28;20238;-76
2022/01/24 11:11:43;;;;;;;12.88;8.93;;;;;;;5.89;81.44;100912.94;5093031;28;20190;-76
2022/01/24 11:14:13;;;;;;;13.77;8.13;;;;;;;6.26;80.90;100914.94;5093251;28;20619;-76
2022/01/24 11:16:40;;;;;;;14.48;9.10;;;;;;;6.43;79.06;100912.81;5092752;28;20180;-76
2022/01/24 11:19:12;;;;;;;13.63;9.15;;;;;;;6.55;78.35;100910.81;5092925;28;20290;-76
2022/01/24 11:21:39;;;;;;;17.95;8.70;;;;;;;6.63;77.82;100911.53;5092741;28;20242;-76
2022/01/24 11:24:08;;;;;;;13.45;8.48;;;;;;;6.67;76.80;100906.09;5092803;28;20188;-76
2022/01/24 11:26:37;;;;;;;11.02;8.05;;;;;;;6.17;79.20;100905.31;5092812;28;20203;-76
2022/01/24 11:29:04;;;;;;;11.07;9.15;;;;;;;6.26;80.15;100905.16;5092807;28;20597;-76
2022/01/24 11:31:40;;;;;;;14.02;9.43;;;;;;;6.08;81.20;100894.78;5092752;28;20271;-76
2022/01/24 11:34:15;;;;;;;14.30;8.30;;;;;;;6.17;80.97;100899.97;5092585;28;20215;-76
2022/01/24 11:36:43;;;;;;;9.52;8.00;;;;;;;6.42;79.48;100897.69;5091685;28;20190;-76
2022/01/24 11:39:11;;;;;;;12.98;8.60;;;;;;;6.64;78.38;100906.13;5092832;28;20574;-76
2022/01/24 11:41:40;;;;;;;11.23;8.73;;;;;;;6.50;78.50;100900.22;5092454;28;20200;-76
2022/01/24 11:44:10;;;;;;;12.98;9.10;;;;;;;6.50;78.75;100893.97;5092297;28;20203;-76
2022/01/24 11:46:44;;;;;;;13.27;9.43;;;;;;;6.68;77.81;100897.13;5091978;28;20198;-76
2022/01/24 11:49:13;;;;;;;10.95;8.32;;;;;;;6.60;77.99;100901.78;5092259;28;20221;-75
2022/01/24 11:51:42;;;;;;;10.90;8.63;;;;;;;6.67;77.78;100895.38;5091935;28;20206;-75
2022/01/24 11:54:42;;;;;;;11.57;8.98;;;;;;;6.56;78.64;100912.59;5091724;28;20275;-77
2022/01/24 11:57:19;;;;;;;11.23;8.02;;;;;;;7.04;76.47;100902.59;5092345;28;20691;-77
2022/01/24 11:59:47;;;;;;;11.40;8.60;;;;;;;6.69;78.06;100900.69;5091946;28;20318;-77
2022/01/24 12:02:19;;;;;;;12.52;8.73;;;;;;;6.90;77.37;100896.69;5091988;28;20569;-75
2022/01/24 12:04:50;;;;;;;12.95;9.43;;;;;;;6.72;77.45;100889.94;5092074;28;20282;-75
2022/01/24 12:07:19;;;;;;;11.88;8.35;;;;;;;6.60;78.39;100882.16;5091576;28;20208;-75
2022/01/24 12:09:46;;;;;;;11.35;8.00;;;;;;;6.99;76.86;100890.25;5091502;28;20239;-75
2022/01/24 12:12:47;;;;;;;11.90;8.52;;;;;;;6.84;77.65;100891.44;5091830;28;20192;-76
2022/01/24 12:15:57;;;;;;;11.30;9.60;;;;;;;7.25;75.38;100882.44;5091975;28;20187;-75
2022/01/24 12:18:46;;;;;;;11.38;9.48;;;;;;;7.07;76.08;100885.56;5007445;28;20558;-76
2022/01/24 12:21:14;;;;;;;12.70;8.23;;;;;;;7.18;75.80;100880.84;5009708;28;20639;-76
2022/01/24 12:23:43;;;;;;;13.98;9.20;;;;;;;7.12;76.02;100880.09;5064391;28;20671;-76
2022/01/24 12:26:20;;;;;;;12.35;9.00;;;;;;;7.23;75.72;100878.06;5091135;28;20271;-78
2022/01/24 12:28:52;;;;;;;11.32;8.75;;;;;;;6.96;77.01;100877.78;5099979;28;20287;-77
2022/01/24 12:31:22;;;;;;;14.77;9.13;;;;;;;7.18;76.02;100874.63;5090468;28;20184;-77
2022/01/24 12:34:08;;;;;;;9.98;7.93;;;;;;;7.07;76.56;100880.22;5090327;28;20608;-76
2022/01/24 12:37:03;;;;;;;11.85;9.60;;;;;;;6.89;77.35;100876.16;5090975;28;20184;-76
2022/01/24 12:39:37;;;;;;;10.50;7.47;;;;;;;6.80;78.38;100879.03;5090764;28;20192;-76
2022/01/24 12:42:10;;;;;;;18.90;11.85;;;;;;;7.12;77.23;100875.63;5091023;28;20183;-75
2022/01/24 12:47:28;;;;;;;11.40;8.82;;;;;;;7.14;77.26;100871.09;5089649;28;20368;-76